sensor_id;sensor_type;location;lat;lon;timestamp;pressure;altitude;pressure_sealevel;temperature;humidity
54512;BME280;40419;47.438;19.026;2023-05-25T00:00:34;99966.69;;;15.69;100.00
54512;BME280;40419;47.438;19.026;2023-05-25T00:02:59;99976.34;;;15.83;100.00
54512;BME280;40419;47.438;19.026;2023-05-25T00:05:27;99969.19;;;15.70;100.00
54512;BME280;40419;47.438;19.026;2023-05-25T00:07:55;99965.25;;;15.66;100.00
54512;BME280;40419;47.438;19.026;2023-05-25T00:10:21;99970.78;;;15.78;100.00
54512;BME280;40419;47.438;19.026;2023-05-25T00:12:49;99977.38;;;15.70;100.00
54512;BME280;40419;47.438;19.026;2023-05-25T00:15:17;99980.81;;;15.66;100.00
54512;BME280;40419;47.438;19.026;2023-05-25T00:17:42;99974.47;;;15.53;100.00
54512;BME280;40419;47.438;19.026;2023-05-25T00:20:08;99981.03;;;15.34;100.00
54512;BME280;40419;47.438;19.026;2023-05-25T00:22:41;99977.66;;;15.38;100.00
54512;BME280;40419;47.438;19.026;2023-05-25T00:25:10;99977.66;;;15.50;100.00
54512;BME280;40419;47.438;19.026;2023-05-25T00:27:38;99973.72;;;15.34;100.00
54512;BME280;40419;47.438;19.026;2023-05-25T00:30:04;99969.94;;;15.35;100.00
54512;BME280;40419;47.438;19.026;2023-05-25T00:32:30;99963.78;;;15.52;100.00
54512;BME280;40419;47.438;19.026;2023-05-25T00:34:55;99974.47;;;15.53;100.00
54512;BME280;40419;47.438;19.026;2023-05-25T00:37:23;99985.06;;;15.62;100.00
54512;BME280;40419;47.438;19.026;2023-05-25T00:39:51;99980.53;;;15.55;100.00
54512;BME280;40419;47.438;19.026;2023-05-25T00:42:21;99975.53;;;15.52;100.00
54512;BME280;40419;47.438;19.026;2023-05-25T00:44:50;99998.38;;;15.39;100.00
54512;BME280;40419;47.438;19.026;2023-05-25T00:47:15;99989.50;;;15.14;100.00
54512;BME280;40419;47.438;19.026;2023-05-25T00:49:42;99986.28;;;15.35;100.00
54512;BME280;40419;47.438;19.026;2023-05-25T00:52:11;99987.47;;;15.39;100.00
54512;BME280;40419;47.438;19.026;2023-05-25T00:54:44;99988.78;;;15.37;100.00
54512;BME280;40419;47.438;19.026;2023-05-25T00:57:13;99986.41;;;15.40;100.00
54512;BME280;40419;47.438;19.026;2023-05-25T00:59:43;99986.53;;;15.46;100.00
54512;BME280;40419;47.438;19.026;2023-05-25T01:02:13;99988.44;;;15.45;100.00
54512;BME280;40419;47.438;19.026;2023-05-25T01:04:52;99989.59;;;15.37;100.00
54512;BME280;40419;47.438;19.026;2023-05-25T01:07:21;99997.91;;;15.42;100.00
54512;BME280;40419;47.438;19.026;2023-05-25T01:09:56;99989.03;;;15.47;100.00
54512;BME280;40419;47.438;19.026;2023-05-25T01:12:27;99995.81;;;15.45;100.00
54512;BME280;40419;47.438;19.026;2023-05-25T01:14:56;99994.31;;;15.30;100.00
54512;BME280;40419;47.438;19.026;2023-05-25T01:17:29;99992.19;;;15.32;100.00
54512;BME280;40419;47.438;19.026;2023-05-25T01:19:57;99993.91;;;15.45;100.00
54512;BME280;40419;47.438;19.026;2023-05-25T01:22:27;99993.69;;;15.47;100.00
54512;BME280;40419;47.438;19.026;2023-05-25T01:25:00;99989.53;;;15.56;100.00
54512;BME280;40419;47.438;19.026;2023-05-25T01:27:43;99994.53;;;15.59;100.00
54512;BME280;40419;47.438;19.026;2023-05-25T01:30:13;99988.09;;;15.53;100.00
54512;BME280;40419;47.438;19.026;2023-05-25T01:32:44;99996.03;;;15.43;100.00
54512;BME280;40419;47.438;19.026;2023-05-25T01:35:12;99997.56;;;15.39;100.00
54512;BME280;40419;47.438;19.026;2023-05-25T01:37:47;100005.00;;;15.32;100.00
54512;BME280;40419;47.438;19.026;2023-05-25T01:40:15;100006.44;;;15.34;100.00
54512;BME280;40419;47.438;19.026;2023-05-25T01:42:41;100010.38;;;15.38;100.00
54512;BME280;40419;47.438;19.026;2023-05-25T01:45:13;100006.22;;;15.36;100.00
54512;BME280;40419;47.438;19.026;2023-05-25T01:53:31;100011.78;;;15.41;100.00
54512;BME280;40419;47.438;19.026;2023-05-25T01:56:11;100008.75;;;15.49;100.00
54512;BME280;40419;47.438;19.026;2023-05-25T01:58:41;100007.91;;;15.49;100.00
54512;BME280;40419;47.438;19.026;2023-05-25T02:01:11;100017.00;;;15.42;100.00
54512;BME280;40419;47.438;19.026;2023-05-25T02:03:43;100012.50;;;15.36;100.00
54512;BME280;40419;47.438;19.026;2023-05-25T02:06:15;100014.00;;;15.32;100.00
54512;BME280;40419;47.438;19.026;2023-05-25T02:08:41;100005.47;;;15.29;100.00
54512;BME280;40419;47.438;19.026;2023-05-25T02:11:12;100015.84;;;15.20;100.00
54512;BME280;40419;47.438;19.026;2023-05-25T02:13:37;100011.59;;;15.24;100.00
54512;BME280;40419;47.438;19.026;2023-05-25T02:16:03;100006.50;;;15.28;100.00
54512;BME280;40419;47.438;19.026;2023-05-25T02:18:29;100009.25;;;15.28;100.00
54512;BME280;40419;47.438;19.026;2023-05-25T02:21:00;100006.84;;;15.19;100.00
54512;BME280;40419;47.438;19.026;2023-05-25T02:23:31;100004.16;;;15.01;100.00
54512;BME280;40419;47.438;19.026;2023-05-25T02:26:01;100016.78;;;15.14;100.00
54512;BME280;40419;47.438;19.026;2023-05-25T02:28:31;100016.19;;;14.93;100.00
54512;BME280;40419;47.438;19.026;2023-05-25T02:30:57;100010.81;;;14.86;100.00
54512;BME280;40419;47.438;19.026;2023-05-25T02:33:22;100015.03;;;14.82;100.00
54512;BME280;40419;47.438;19.026;2023-05-25T02:35:49;100018.31;;;14.73;100.00
54512;BME280;40419;47.438;19.026;2023-05-25T02:38:14;100015.94;;;14.76;100.00
54512;BME280;40419;47.438;19.026;2023-05-25T02:40:40;100014.44;;;14.62;100.00
54512;BME280;40419;47.438;19.026;2023-05-25T02:43:08;100013.03;;;14.52;100.00
54512;BME280;40419;47.438;19.026;2023-05-25T02:45:39;100016.44;;;14.48;100.00
54512;BME280;40419;47.438;19.026;2023-05-25T02:48:07;100007.03;;;14.44;100.00
54512;BME280;40419;47.438;19.026;2023-05-25T02:50:37;100023.22;;;14.64;100.00
54512;BME280;40419;47.438;19.026;2023-05-25T02:53:08;100023.06;;;14.77;100.00
54512;BME280;40419;47.438;19.026;2023-05-25T02:55:38;100018.72;;;14.51;100.00
54512;BME280;40419;47.438;19.026;2023-05-25T02:58:09;100018.41;;;14.59;100.00
54512;BME280;40419;47.438;19.026;2023-05-25T03:01:02;100026.66;;;14.52;100.00
54512;BME280;40419;47.438;19.026;2023-05-25T03:03:37;100025.25;;;14.68;100.00
54512;BME280;40419;47.438;19.026;2023-05-25T03:06:05;100028.44;;;14.84;100.00
54512;BME280;40419;47.438;19.026;2023-05-25T03:08:33;100031.69;;;14.74;100.00
54512;BME280;40419;47.438;19.026;2023-05-25T03:10:58;100034.41;;;15.11;100.00
54512;BME280;40419;47.438;19.026;2023-05-25T03:13:26;100031.47;;;15.13;100.00
54512;BME280;40419;47.438;19.026;2023-05-25T03:15:56;100031.84;;;15.16;100.00
54512;BME280;40419;47.438;19.026;2023-05-25T03:18:24;100031.78;;;15.04;100.00
54512;BME280;40419;47.438;19.026;2023-05-25T03:20:50;100036.81;;;15.38;100.00
54512;BME280;40419;47.438;19.026;2023-05-25T03:23:18;100039.28;;;15.58;100.00
54512;BME280;40419;47.438;19.026;2023-05-25T03:25:44;100044.69;;;15.76;100.00
54512;BME280;40419;47.438;19.026;2023-05-25T03:28:13;100039.72;;;15.55;100.00
54512;BME280;40419;47.438;19.026;2023-05-25T03:30:39;100043.66;;;15.59;100.00
54512;BME280;40419;47.438;19.026;2023-05-25T03:33:10;100045.97;;;15.44;100.00
54512;BME280;40419;47.438;19.026;2023-05-25T03:35:42;100041.81;;;15.41;100.00
54512;BME280;40419;47.438;19.026;2023-05-25T03:38:14;100048.88;;;15.60;100.00
54512;BME280;40419;47.438;19.026;2023-05-25T03:40:41;100041.09;;;15.76;100.00
54512;BME280;40419;47.438;19.026;2023-05-25T03:43:09;100043.00;;;15.75;100.00
54512;BME280;40419;47.438;19.026;2023-05-25T03:45:37;100040.94;;;15.89;100.00
54512;BME280;40419;47.438;19.026;2023-05-25T03:48:05;100041.94;;;15.76;100.00
54512;BME280;40419;47.438;19.026;2023-05-25T03:50:33;100048.84;;;15.79;100.00
54512;BME280;40419;47.438;19.026;2023-05-25T03:53:01;100055.44;;;16.02;100.00
54512;BME280;40419;47.438;19.026;2023-05-25T03:55:29;100043.22;;;16.04;100.00
54512;BME280;40419;47.438;19.026;2023-05-25T03:58:02;100049.06;;;16.20;100.00
54512;BME280;40419;47.438;19.026;2023-05-25T04:00:32;100053.59;;;16.26;100.00
54512;BME280;40419;47.438;19.026;2023-05-25T04:03:01;100050.97;;;16.19;100.00
54512;BME280;40419;47.438;19.026;2023-05-25T04:05:32;100063.38;;;16.34;100.00
54512;BME280;40419;47.438;19.026;2023-05-25T04:07:57;100064.41;;;16.33;100.00
54512;BME280;40419;47.438;19.026;2023-05-25T04:10:26;100066.22;;;16.39;100.00
54512;BME280;40419;47.438;19.026;2023-05-25T04:12:58;100063.72;;;16.61;100.00
54512;BME280;40419;47.438;19.026;2023-05-25T04:15:26;100062.63;;;16.26;100.00
54512;BME280;40419;47.438;19.026;2023-05-25T04:18:05;100069.16;;;16.25;100.00
54512;BME280;40419;47.438;19.026;2023-05-25T04:20:31;100078.75;;;16.16;100.00
54512;BME280;40419;47.438;19.026;2023-05-25T04:23:01;100085.44;;;16.20;100.00
54512;BME280;40419;47.438;19.026;2023-05-25T04:25:27;100087.31;;;15.77;100.00
54512;BME280;40419;47.438;19.026;2023-05-25T04:28:24;100090.59;;;15.98;100.00
54512;BME280;40419;47.438;19.026;2023-05-25T04:30:57;100089.31;;;16.01;100.00
54512;BME280;40419;47.438;19.026;2023-05-25T04:33:37;100095.63;;;16.13;100.00
54512;BME280;40419;47.438;19.026;2023-05-25T04:36:24;100096.63;;;16.30;100.00
54512;BME280;40419;47.438;19.026;2023-05-25T04:38:50;100084.97;;;16.23;100.00
54512;BME280;40419;47.438;19.026;2023-05-25T04:41:22;100080.22;;;16.30;100.00
54512;BME280;40419;47.438;19.026;2023-05-25T04:43:54;100082.72;;;16.44;100.00
54512;BME280;40419;47.438;19.026;2023-05-25T04:46:29;100091.06;;;16.73;100.00
54512;BME280;40419;47.438;19.026;2023-05-25T04:48:59;100090.69;;;16.81;100.00
54512;BME280;40419;47.438;19.026;2023-05-25T04:51:27;100081.09;;;17.02;100.00
54512;BME280;40419;47.438;19.026;2023-05-25T04:53:57;100079.03;;;16.86;100.00
54512;BME280;40419;47.438;19.026;2023-05-25T04:56:26;100088.09;;;16.98;100.00
54512;BME280;40419;47.438;19.026;2023-05-25T04:58:54;100082.72;;;17.15;100.00
54512;BME280;40419;47.438;19.026;2023-05-25T05:01:19;100075.75;;;17.36;100.00
54512;BME280;40419;47.438;19.026;2023-05-25T05:03:45;100081.59;;;17.40;100.00
54512;BME280;40419;47.438;19.026;2023-05-25T05:06:15;100080.34;;;17.59;100.00
54512;BME280;40419;47.438;19.026;2023-05-25T05:08:44;100083.25;;;17.41;100.00
54512;BME280;40419;47.438;19.026;2023-05-25T05:11:14;100085.59;;;17.49;100.00
54512;BME280;40419;47.438;19.026;2023-05-25T05:13:40;100087.94;;;17.57;100.00
54512;BME280;40419;47.438;19.026;2023-05-25T05:16:12;100089.59;;;17.70;100.00
54512;BME280;40419;47.438;19.026;2023-05-25T05:18:40;100103.72;;;17.79;100.00
54512;BME280;40419;47.438;19.026;2023-05-25T05:21:08;100093.66;;;17.56;100.00
54512;BME280;40419;47.438;19.026;2023-05-25T05:23:41;100098.84;;;17.69;100.00
54512;BME280;40419;47.438;19.026;2023-05-25T05:26:07;100093.53;;;17.62;100.00
54512;BME280;40419;47.438;19.026;2023-05-25T05:28:38;100096.97;;;17.69;100.00
54512;BME280;40419;47.438;19.026;2023-05-25T05:31:04;100095.56;;;17.96;100.00
54512;BME280;40419;47.438;19.026;2023-05-25T05:33:35;100104.09;;;17.70;100.00
54512;BME280;40419;47.438;19.026;2023-05-25T05:36:01;100107.59;;;17.83;100.00
54512;BME280;40419;47.438;19.026;2023-05-25T05:38:30;100100.19;;;18.24;100.00
54512;BME280;40419;47.438;19.026;2023-05-25T05:40:59;100106.91;;;18.50;100.00
54512;BME280;40419;47.438;19.026;2023-05-25T05:43:30;100107.56;;;18.57;100.00
54512;BME280;40419;47.438;19.026;2023-05-25T05:45:58;100099.25;;;18.52;100.00
54512;BME280;40419;47.438;19.026;2023-05-25T05:48:23;100104.00;;;18.40;100.00
54512;BME280;40419;47.438;19.026;2023-05-25T05:50:51;100103.41;;;18.21;100.00
54512;BME280;40419;47.438;19.026;2023-05-25T05:53:19;100102.25;;;18.34;100.00
54512;BME280;40419;47.438;19.026;2023-05-25T05:55:45;100111.56;;;18.50;100.00
54512;BME280;40419;47.438;19.026;2023-05-25T05:58:17;100106.41;;;18.19;100.00
54512;BME280;40419;47.438;19.026;2023-05-25T06:00:43;100111.13;;;18.58;100.00
54512;BME280;40419;47.438;19.026;2023-05-25T06:03:11;100111.47;;;18.78;100.00
54512;BME280;40419;47.438;19.026;2023-05-25T06:05:39;100109.41;;;18.86;100.00
54512;BME280;40419;47.438;19.026;2023-05-25T06:08:07;100114.78;;;18.98;100.00
54512;BME280;40419;47.438;19.026;2023-05-25T06:10:37;100117.19;;;18.94;100.00
54512;BME280;40419;47.438;19.026;2023-05-25T06:13:03;100121.06;;;19.15;100.00
54512;BME280;40419;47.438;19.026;2023-05-25T06:15:34;100124.91;;;19.36;100.00
54512;BME280;40419;47.438;19.026;2023-05-25T06:18:07;100122.06;;;19.48;100.00
54512;BME280;40419;47.438;19.026;2023-05-25T06:20:37;100126.25;;;19.11;100.00
54512;BME280;40419;47.438;19.026;2023-05-25T06:23:07;100119.94;;;18.94;100.00
54512;BME280;40419;47.438;19.026;2023-05-25T06:25:35;100116.69;;;19.36;100.00
54512;BME280;40419;47.438;19.026;2023-05-25T06:28:01;100111.81;;;19.21;100.00
54512;BME280;40419;47.438;19.026;2023-05-25T06:30:31;100116.94;;;19.35;100.00
54512;BME280;40419;47.438;19.026;2023-05-25T06:32:57;100119.78;;;19.23;100.00
54512;BME280;40419;47.438;19.026;2023-05-25T06:35:24;100112.91;;;19.42;100.00
54512;BME280;40419;47.438;19.026;2023-05-25T06:37:51;100109.19;;;19.76;100.00
54512;BME280;40419;47.438;19.026;2023-05-25T06:40:20;100113.94;;;20.08;100.00
54512;BME280;40419;47.438;19.026;2023-05-25T06:42:46;100124.72;;;20.14;100.00
54512;BME280;40419;47.438;19.026;2023-05-25T06:45:44;100116.13;;;20.06;100.00
54512;BME280;40419;47.438;19.026;2023-05-25T06:48:13;100126.81;;;20.29;100.00
54512;BME280;40419;47.438;19.026;2023-05-25T06:50:40;100120.41;;;20.24;100.00
54512;BME280;40419;47.438;19.026;2023-05-25T06:53:10;100125.81;;;19.86;100.00
54512;BME280;40419;47.438;19.026;2023-05-25T06:55:40;100116.28;;;19.72;100.00
54512;BME280;40419;47.438;19.026;2023-05-25T06:58:06;100115.69;;;19.70;100.00
54512;BME280;40419;47.438;19.026;2023-05-25T07:00:32;100125.72;;;20.03;100.00
54512;BME280;40419;47.438;19.026;2023-05-25T07:02:59;100126.19;;;19.73;100.00
54512;BME280;40419;47.438;19.026;2023-05-25T07:05:28;100127.28;;;19.72;100.00
54512;BME280;40419;47.438;19.026;2023-05-25T07:07:53;100134.31;;;19.85;100.00
54512;BME280;40419;47.438;19.026;2023-05-25T07:10:19;100132.91;;;19.82;100.00
54512;BME280;40419;47.438;19.026;2023-05-25T07:12:46;100141.28;;;19.70;100.00
54512;BME280;40419;47.438;19.026;2023-05-25T07:15:12;100137.72;;;19.47;100.00
54512;BME280;40419;47.438;19.026;2023-05-25T07:17:41;100139.66;;;19.30;100.00
54512;BME280;40419;47.438;19.026;2023-05-25T07:20:13;100135.50;;;19.27;100.00
54512;BME280;40419;47.438;19.026;2023-05-25T07:22:45;100133.38;;;19.12;100.00
54512;BME280;40419;47.438;19.026;2023-05-25T07:25:20;100137.09;;;19.23;100.00
54512;BME280;40419;47.438;19.026;2023-05-25T07:27:49;100135.91;;;19.36;100.00
54512;BME280;40419;47.438;19.026;2023-05-25T07:30:21;100140.75;;;19.95;100.00
54512;BME280;40419;47.438;19.026;2023-05-25T07:32:49;100129.44;;;20.19;100.00
54512;BME280;40419;47.438;19.026;2023-05-25T07:35:14;100140.28;;;20.04;100.00
54512;BME280;40419;47.438;19.026;2023-05-25T07:37:40;100141.88;;;20.27;100.00
54512;BME280;40419;47.438;19.026;2023-05-25T07:40:10;100145.59;;;20.15;100.00
54512;BME280;40419;47.438;19.026;2023-05-25T07:42:38;100148.47;;;19.98;100.00
54512;BME280;40419;47.438;19.026;2023-05-25T07:45:05;100139.25;;;19.82;100.00
54512;BME280;40419;47.438;19.026;2023-05-25T07:47:32;100132.09;;;19.81;100.00
54512;BME280;40419;47.438;19.026;2023-05-25T07:50:00;100145.00;;;20.08;100.00
54512;BME280;40419;47.438;19.026;2023-05-25T07:52:29;100138.88;;;20.28;100.00
54512;BME280;40419;47.438;19.026;2023-05-25T07:54:57;100150.78;;;20.39;100.00
54512;BME280;40419;47.438;19.026;2023-05-25T07:57:28;100144.84;;;20.47;96.92
54512;BME280;40419;47.438;19.026;2023-05-25T07:59:53;100151.84;;;20.98;97.22
54512;BME280;40419;47.438;19.026;2023-05-25T08:02:21;100153.31;;;20.73;99.81
54512;BME280;40419;47.438;19.026;2023-05-25T08:04:47;100148.22;;;20.92;97.60
54512;BME280;40419;47.438;19.026;2023-05-25T08:07:17;100145.38;;;20.77;96.38
54512;BME280;40419;47.438;19.026;2023-05-25T08:09:45;100140.72;;;21.30;95.74
54512;BME280;40419;47.438;19.026;2023-05-25T08:12:13;100141.47;;;21.58;97.20
54512;BME280;40419;47.438;19.026;2023-05-25T08:14:41;100148.31;;;21.50;93.17
54512;BME280;40419;47.438;19.026;2023-05-25T08:17:11;100147.28;;;21.19;92.67
54512;BME280;40419;47.438;19.026;2023-05-25T08:19:37;100154.34;;;21.04;95.84
54512;BME280;40419;47.438;19.026;2023-05-25T08:22:02;100149.44;;;21.06;94.85
54512;BME280;40419;47.438;19.026;2023-05-25T08:24:28;100158.75;;;21.00;95.19
54512;BME280;40419;47.438;19.026;2023-05-25T08:26:56;100151.34;;;21.06;95.27
54512;BME280;40419;47.438;19.026;2023-05-25T08:29:21;100154.06;;;21.01;92.71
54512;BME280;40419;47.438;19.026;2023-05-25T08:31:52;100155.03;;;20.79;94.05
54512;BME280;40419;47.438;19.026;2023-05-25T08:34:18;100150.84;;;21.14;92.49
54512;BME280;40419;47.438;19.026;2023-05-25T08:36:44;100144.34;;;21.36;89.13
54512;BME280;40419;47.438;19.026;2023-05-25T08:39:10;100145.75;;;21.38;92.75
54512;BME280;40419;47.438;19.026;2023-05-25T08:41:43;100152.59;;;21.36;91.08
54512;BME280;40419;47.438;19.026;2023-05-25T08:44:09;100160.44;;;21.06;92.23
54512;BME280;40419;47.438;19.026;2023-05-25T08:46:39;100154.94;;;21.12;94.82
54512;BME280;40419;47.438;19.026;2023-05-25T08:49:12;100159.03;;;21.04;94.92
54512;BME280;40419;47.438;19.026;2023-05-25T08:51:41;100161.53;;;20.68;91.71
54512;BME280;40419;47.438;19.026;2023-05-25T08:54:09;100162.94;;;20.70;96.80
54512;BME280;40419;47.438;19.026;2023-05-25T08:56:52;100167.38;;;21.14;93.44
54512;BME280;40419;47.438;19.026;2023-05-25T09:05:19;100156.50;;;21.40;89.79
54512;BME280;40419;47.438;19.026;2023-05-25T09:07:45;100156.44;;;21.30;92.08
54512;BME280;40419;47.438;19.026;2023-05-25T09:10:18;100156.59;;;21.55;90.75
54512;BME280;40419;47.438;19.026;2023-05-25T09:12:46;100153.56;;;21.57;88.64
54512;BME280;40419;47.438;19.026;2023-05-25T09:15:12;100149.38;;;21.49;87.93
54512;BME280;40419;47.438;19.026;2023-05-25T09:17:39;100151.63;;;21.52;88.56
54512;BME280;40419;47.438;19.026;2023-05-25T09:20:07;100156.63;;;21.61;86.35
54512;BME280;40419;47.438;19.026;2023-05-25T09:22:34;100150.22;;;22.34;86.27
54512;BME280;40419;47.438;19.026;2023-05-25T09:25:09;100143.53;;;22.09;82.25
54512;BME280;40419;47.438;19.026;2023-05-25T09:27:35;100141.88;;;22.13;83.75
54512;BME280;40419;47.438;19.026;2023-05-25T09:30:05;100144.44;;;22.35;85.41
54512;BME280;40419;47.438;19.026;2023-05-25T09:32:34;100147.69;;;22.22;86.77
54512;BME280;40419;47.438;19.026;2023-05-25T09:35:12;100155.59;;;21.77;89.22
54512;BME280;40419;47.438;19.026;2023-05-25T09:37:42;100147.91;;;21.94;86.65
54512;BME280;40419;47.438;19.026;2023-05-25T09:40:09;100155.63;;;21.92;84.79
54512;BME280;40419;47.438;19.026;2023-05-25T09:42:39;100161.06;;;21.67;86.29
54512;BME280;40419;47.438;19.026;2023-05-25T09:45:05;100159.13;;;21.62;85.27
54512;BME280;40419;47.438;19.026;2023-05-25T09:47:31;100158.16;;;21.46;88.60
54512;BME280;40419;47.438;19.026;2023-05-25T09:50:01;100163.94;;;21.39;91.24
54512;BME280;40419;47.438;19.026;2023-05-25T09:52:27;100169.19;;;21.46;91.89
54512;BME280;40419;47.438;19.026;2023-05-25T09:54:52;100162.25;;;21.33;91.52
54512;BME280;40419;47.438;19.026;2023-05-25T09:57:21;100166.38;;;21.31;93.39
54512;BME280;40419;47.438;19.026;2023-05-25T09:59:49;100163.34;;;21.32;94.96
54512;BME280;40419;47.438;19.026;2023-05-25T10:02:17;100168.53;;;21.29;91.76
54512;BME280;40419;47.438;19.026;2023-05-25T10:04:43;100163.00;;;21.71;92.20
54512;BME280;40419;47.438;19.026;2023-05-25T10:07:09;100158.78;;;22.47;93.28
54512;BME280;40419;47.438;19.026;2023-05-25T10:09:43;100159.06;;;22.61;85.78
54512;BME280;40419;47.438;19.026;2023-05-25T10:12:16;100160.44;;;22.64;85.49
54512;BME280;40419;47.438;19.026;2023-05-25T10:14:45;100160.97;;;22.35;86.91
54512;BME280;40419;47.438;19.026;2023-05-25T10:17:19;100158.16;;;22.25;81.90
54512;BME280;40419;47.438;19.026;2023-05-25T10:19:56;100161.88;;;21.67;88.49
54512;BME280;40419;47.438;19.026;2023-05-25T10:25:07;100154.69;;;21.66;86.68
54512;BME280;40419;47.438;19.026;2023-05-25T10:27:37;100152.22;;;21.65;85.27
54512;BME280;40419;47.438;19.026;2023-05-25T10:30:04;100151.69;;;21.68;84.80
54512;BME280;40419;47.438;19.026;2023-05-25T10:32:32;100150.59;;;21.74;86.78
54512;BME280;40419;47.438;19.026;2023-05-25T10:35:04;100140.84;;;22.55;84.45
54512;BME280;40419;47.438;19.026;2023-05-25T10:37:33;100138.38;;;22.69;81.26
54512;BME280;40419;47.438;19.026;2023-05-25T10:40:02;100145.81;;;22.53;80.39
54512;BME280;40419;47.438;19.026;2023-05-25T10:42:33;100145.28;;;22.51;79.14
54512;BME280;40419;47.438;19.026;2023-05-25T10:45:05;100152.94;;;22.23;78.88
54512;BME280;40419;47.438;19.026;2023-05-25T10:47:34;100140.25;;;22.12;80.13
54512;BME280;40419;47.438;19.026;2023-05-25T10:50:01;100138.56;;;22.11;81.47
54512;BME280;40419;47.438;19.026;2023-05-25T10:52:28;100134.50;;;22.39;76.00
54512;BME280;40419;47.438;19.026;2023-05-25T10:55:02;100138.34;;;22.79;75.23
54512;BME280;40419;47.438;19.026;2023-05-25T10:57:29;100138.09;;;22.55;74.32
54512;BME280;40419;47.438;19.026;2023-05-25T11:00:04;100132.25;;;23.03;75.83
54512;BME280;40419;47.438;19.026;2023-05-25T11:02:51;100135.25;;;23.27;71.49
54512;BME280;40419;47.438;19.026;2023-05-25T11:05:29;100122.72;;;23.50;70.00
54512;BME280;40419;47.438;19.026;2023-05-25T11:07:57;100126.06;;;23.47;72.08
54512;BME280;40419;47.438;19.026;2023-05-25T11:18:53;100117.63;;;24.28;68.80
54512;BME280;40419;47.438;19.026;2023-05-25T11:23:57;100123.41;;;23.06;71.78
54512;BME280;40419;47.438;19.026;2023-05-25T11:26:27;100113.81;;;22.62;73.82
54512;BME280;40419;47.438;19.026;2023-05-25T11:28:59;100119.31;;;22.78;77.12
54512;BME280;40419;47.438;19.026;2023-05-25T11:31:33;100114.66;;;22.42;78.04
54512;BME280;40419;47.438;19.026;2023-05-25T11:34:02;100110.50;;;22.60;78.17
54512;BME280;40419;47.438;19.026;2023-05-25T11:36:33;100111.03;;;22.42;79.77
54512;BME280;40419;47.438;19.026;2023-05-25T11:39:03;100105.81;;;22.51;78.96
54512;BME280;40419;47.438;19.026;2023-05-25T11:41:34;100110.19;;;22.93;75.94
54512;BME280;40419;47.438;19.026;2023-05-25T11:44:05;100110.22;;;22.41;76.16
54512;BME280;40419;47.438;19.026;2023-05-25T11:46:32;100105.75;;;23.12;79.20
54512;BME280;40419;47.438;19.026;2023-05-25T11:49:03;100090.53;;;23.25;73.30
54512;BME280;40419;47.438;19.026;2023-05-25T11:51:29;100095.34;;;23.59;73.75
54512;BME280;40419;47.438;19.026;2023-05-25T11:53:57;100086.13;;;23.74;71.55
54512;BME280;40419;47.438;19.026;2023-05-25T11:56:25;100091.63;;;23.24;73.22
54512;BME280;40419;47.438;19.026;2023-05-25T11:58:53;100080.59;;;23.09;74.42
54512;BME280;40419;47.438;19.026;2023-05-25T12:01:21;100076.66;;;23.41;72.52
54512;BME280;40419;47.438;19.026;2023-05-25T12:03:50;100083.03;;;23.31;72.02
54512;BME280;40419;47.438;19.026;2023-05-25T12:06:31;100080.47;;;23.50;67.16
54512;BME280;40419;47.438;19.026;2023-05-25T12:09:10;100079.84;;;22.77;68.43
54512;BME280;40419;47.438;19.026;2023-05-25T12:11:36;100068.78;;;22.82;71.98
54512;BME280;40419;47.438;19.026;2023-05-25T12:14:06;100071.13;;;23.41;67.84
54512;BME280;40419;47.438;19.026;2023-05-25T12:16:35;100064.63;;;23.66;66.34
54512;BME280;40419;47.438;19.026;2023-05-25T12:19:05;100070.59;;;23.39;68.72
54512;BME280;40419;47.438;19.026;2023-05-25T12:21:37;100063.50;;;23.01;69.89
54512;BME280;40419;47.438;19.026;2023-05-25T12:24:07;100069.03;;;22.91;70.37
54512;BME280;40419;47.438;19.026;2023-05-25T12:26:33;100062.47;;;22.72;71.38
54512;BME280;40419;47.438;19.026;2023-05-25T12:29:10;100062.47;;;22.20;73.31
54512;BME280;40419;47.438;19.026;2023-05-25T12:31:36;100065.25;;;22.56;73.02
54512;BME280;40419;47.438;19.026;2023-05-25T12:34:13;100065.28;;;22.41;73.67
54512;BME280;40419;47.438;19.026;2023-05-25T12:36:49;100060.50;;;22.82;73.32
54512;BME280;40419;47.438;19.026;2023-05-25T12:41:54;100061.63;;;22.76;71.57
54512;BME280;40419;47.438;19.026;2023-05-25T12:46:50;100056.31;;;23.11;70.08
54512;BME280;40419;47.438;19.026;2023-05-25T12:51:51;100054.22;;;23.52;71.30
54512;BME280;40419;47.438;19.026;2023-05-25T12:54:37;100054.97;;;23.58;70.78
54512;BME280;40419;47.438;19.026;2023-05-25T12:59:35;100055.19;;;23.17;71.53
54512;BME280;40419;47.438;19.026;2023-05-25T13:02:03;100051.16;;;22.78;70.57
54512;BME280;40419;47.438;19.026;2023-05-25T13:04:32;100050.81;;;22.95;71.28
54512;BME280;40419;47.438;19.026;2023-05-25T13:07:01;100049.44;;;22.98;70.33
54512;BME280;40419;47.438;19.026;2023-05-25T13:09:26;100048.59;;;22.97;71.33
54512;BME280;40419;47.438;19.026;2023-05-25T13:11:54;100036.53;;;22.73;75.26
54512;BME280;40419;47.438;19.026;2023-05-25T13:14:20;100035.13;;;22.80;74.15
54512;BME280;40419;47.438;19.026;2023-05-25T13:16:48;100038.72;;;22.76;75.14
54512;BME280;40419;47.438;19.026;2023-05-25T13:19:16;100030.47;;;22.71;73.82
54512;BME280;40419;47.438;19.026;2023-05-25T13:21:47;100041.44;;;22.91;74.96